Tiempo atmosférico en la estación meteorológica de Figueres, Girona (47 m.)



Fecha
DESCASC
Temp. máxima en grados centígrados (hora)
DESCASC
Temp. mínima en grados centígrados (hora)
DESCASC
Temp. media en grados centígrados
DESCASC
Racha de viento máxima en m/sg (hora)
DESCASC
Velocidad máxima media en intervalos de 10 minutos(hora)
DESCASC
Precipitaciones diarias en mm
DESCASC
Precipitaciones de 00:00 a 06:00 en mm
DESCASC
Precipitaciones de 06:00 a 12:00 en mm
DESCASC
Precipitaciones de 12:00 a 18:00 en mm
DESCASC
Precipitaciones de 18:00 a 24:00 en mm
DESCASC
20-09-2020 28.4 (14:10) 18.6 (07:20) 23.5 7.78 (03:20) 4.17 (03:20) 15.6 0 0 0 15.6
19-09-2020 29.1 (13:40) 17.7 (08:00) 23.4 7.78 (19:30) 3.61 (19:30) 0.4 0 0 0.4 0
18-09-2020 28.2 (11:50) 19.9 (07:10) 24.1 7.78 (15:00) 3.89 (13:00) 0.6 0 0 0.4 0.2
17-09-2020 31.1 (13:30) 19 (00:00) 25.1 6.39 (14:50) 3.33 (15:10) 0 0 0 0 0
16-09-2020 30 (13:30) 19.4 (00:00) 24.7 5 (14:40) 2.78 (15:10) 0 0 0 0 0
15-09-2020 28.7 (13:40) 17.3 (00:00) 23 5.56 (14:30) 2.78 (14:40) 0 0 0 0 0
14-09-2020 29.8 (13:30) 17.4 (00:00) 23.6 7.22 (15:30) 3.06 (14:50) 0 0 0 0 0
13-09-2020 33.1 (15:10) 20.2 (00:00) 26.6 5.56 (15:20) 3.06 (15:20) 0 0 0 0 0
12-09-2020 33.2 (16:20) 20.1 (00:00) 26.7 7.22 (13:00) 3.33 (13:00) 0 0 0 0 0
11-09-2020 31.3 (16:50) 19.9 (00:00) 25.6 12.22 (12:50) 5.28 (11:40) 0.2 0.2 0 0 0
10-09-2020 27.7 (13:20) 17.8 (00:00) 22.8 9.44 (11:20) 3.61 (10:00) 0 0 0 0 0
09-09-2020 25.8 (15:20) 18.2 (00:00) 22 8.33 (14:20) 4.17 (14:20) 5.4 2 3.4 0 0
08-09-2020 27.8 (14:40) 18.5 (00:00) 23.1 11.94 (01:30) 5.28 (06:10) 7.4 0 0 7.2 0.2
07-09-2020 24.9 (14:20) 17.4 (04:20) 21.1 15.28 (19:10) 6.94 (17:10) 3.8 3.6 0.2 0 0
06-09-2020 24.4 (16:50) 17.4 (00:00) 20.9 12.78 (18:30) 5.83 (18:30) 3.6 0 0 0 3.6
05-09-2020 28.7 (15:40) 21.2 (00:00) 25 6.11 (17:00) 3.33 (16:30) 0 0 0 0 0
04-09-2020 29.2 (13:40) 16.2 (00:00) 22.7 7.22 (15:30) 3.33 (15:20) 0 0 0 0 0
03-09-2020 29.4 (14:40) 17.4 (00:00) 23.4 7.22 (15:50) 3.61 (10:30) 0 0 0 0 0
02-09-2020 29 (15:10) 19.9 (00:00) 24.4 8.33 (02:20) 4.17 (17:40) 0 0 0 0 0
01-09-2020 26.5 (13:50) 16.2 (00:00) 21.4 7.5 (15:10) 3.61 (15:10) 0 0 0 0 0
31-08-2020 26.6 (14:50) 17.3 (00:00) 21.9 10.56 (04:00) 4.17 (07:00) 0 0 0 0 0
30-08-2020 26.1 (15:10) 13.2 (00:00) 19.7 10.28 (17:50) 5 (17:30) 1.6 1.4 0.2 0 0
29-08-2020 23.7 (16:10) 14.7 (00:00) 19.2 12.5 (05:30) 6.11 (05:20) 16.4 1.4 14.6 0.4 0
28-08-2020 31.4 (13:50) 17.1 (00:00) 24.3 13.89 (20:00) 6.67 (20:10) 1.2 0 0 0 1.2
27-08-2020 32.5 (13:10) 21.7 (00:00) 27.1 7.5 (15:30) 3.33 (13:40) 0 0 0 0 0
26-08-2020 31.3 (14:10) 21.1 (00:00) 26.2 7.5 (12:50) 3.33 (14:00) 0 0 0 0 0
25-08-2020 32 (14:10) 19.2 (00:00) 25.6 6.11 (15:20) 3.33 (16:00) 0 0 0 0 0
24-08-2020 31.9 (16:20) 22.1 (00:00) 27 11.67 (08:30) 5.56 (11:20) 0 0 0 0 0
23-08-2020 30.7 (17:30) 22.6 (00:00) 26.7 13.89 (09:00) 6.39 (08:40) 0 0 0 0 0

Gráficas

Temp. máximas Temp. mínimas Temp. medias Precipitaciones Rachas de viento máximas Velocidades máximas media en intervalos de 10 minutos

Datos horarios

Fecha y hora oficial Temperatura (ºC) Velocidad del viento (km/h) Dirección del viento Racha (km/h) Dirección de racha Precipitación (mm) Presión (hPa) Tendencia (hPa) Humedad (%)
2020-09-21 23:00:00 18 5 Noroeste 9 Norte 0 -- -- 94
2020-09-21 22:00:00 18.3 0 Calma 12 Nordeste 0 -- -- 94
2020-09-21 21:00:00 18.5 4 Este 13 Nordeste 0 -- -- 94
2020-09-21 20:00:00 18.7 3 Norte 8 Noroeste 0.8 -- -- 93
2020-09-21 19:00:00 18.7 4 Sudoeste 7 Sudoeste 0.4 -- -- 92
2020-09-21 18:00:00 19.1 2 Noroeste 15 Noroeste 2 -- -- 91
2020-09-21 17:00:00 19.7 6 Noroeste 14 Norte 2 -- -- 91
2020-09-21 16:00:00 20.8 6 Nordeste 24 Sur 0.8 -- -- 82
2020-09-21 15:00:00 23.5 8 Sur 20 Sur 0 -- -- 70
2020-09-21 14:00:00 24.8 5 Sudeste 13 Sudoeste 0 -- -- 66
2020-09-21 13:00:00 24.9 6 Sudoeste 12 Sudoeste 0 -- -- 64
2020-09-21 12:00:00 23 4 Sudoeste 8 Noroeste 0 -- -- 73
2020-09-21 11:00:00 22.4 3 Oeste 7 Sudeste 0 -- -- 77
2020-09-21 10:00:00 20.9 3 Sudeste 6 Este 0 -- -- 86
2020-09-21 09:00:00 19.1 2 Sur 5 Noroeste 0 -- -- 91
2020-09-21 08:00:00 17.4 4 Noroeste 7 Noroeste 0 -- -- 94
2020-09-21 07:00:00 17.9 4 Sudoeste 6 Noroeste 0 -- -- 93
2020-09-21 06:00:00 18 0 Calma 9 Noroeste 0 -- -- 94
2020-09-21 05:00:00 18.6 4 Noroeste 7 Noroeste 0 -- -- 93
2020-09-21 04:00:00 19.1 0 Calma 6 Nordeste 0 -- -- 94
2020-09-21 03:00:00 19.3 4 Noroeste 8 Oeste 0 -- -- 92
2020-09-21 02:00:00 19.8 3 Nordeste 8 Nordeste 1 -- -- 91
2020-09-21 01:00:00 19.6 3 Norte 12 Oeste 2.4 -- -- 93
2020-09-21 00:00:00 19.8 5 Noroeste 18 Nordeste 15.6 -- -- 90
2020-09-20 23:00:00 22 3 Nordeste 9 Nordeste 0 -- -- 70
2020-09-20 22:00:00 22 0 Calma 9 Este 0 -- -- 68
2020-09-20 21:00:00 22.3 3 Este 8 Este 0 -- -- 67
2020-09-20 20:00:00 23.2 3 Este 10 Sur 0 -- -- 63
2020-09-20 19:00:00 24.3 5 Sur 13 Sur 0 -- -- 58
2020-09-20 18:00:00 24.5 5 Sudeste 17 Sur 0 -- -- 58
2020-09-20 17:00:00 24.9 6 Sur 15 Sudeste 0 -- -- 57
2020-09-20 16:00:00 25 8 Sur 26 Sudoeste 0 -- -- 59
2020-09-20 15:00:00 27.4 11 Sudoeste 26 Sudoeste 0 -- -- 52
2020-09-20 14:00:00 27.8 9 Sur 22 Sur 0 -- -- 47
2020-09-20 13:00:00 27 5 Sudeste 12 Sur 0 -- -- 48
2020-09-20 12:00:00 26.3 5 Este 10 Sudeste 0 -- -- 50
2020-09-20 11:00:00 25.4 4 Sur 9 Sur 0 -- -- 56
2020-09-20 10:00:00 23.2 5 Sudoeste 8 Oeste 0 -- -- 65
2020-09-20 09:00:00 19.8 4 Noroeste 8 Noroeste 0 -- -- 78
2020-09-20 08:00:00 18.8 5 Noroeste 8 Norte 0 -- -- 79
2020-09-20 07:00:00 18.8 0 Calma 17 Nordeste 0 -- -- 79
2020-09-20 06:00:00 21 8 Nordeste 21 Nordeste 0 -- -- 68
2020-09-20 05:00:00 20.9 3 Noroeste 22 Nordeste 0 -- -- 72
2020-09-20 04:00:00 21.7 12 Nordeste 28 Nordeste 0 -- -- 71
2020-09-20 03:00:00 22.3 13 Nordeste 26 Nordeste 0 -- -- 74
2020-09-20 02:00:00 21.4 5 Noroeste 14 Nordeste 0 -- -- 80
2020-09-20 01:00:00 21 9 Nordeste 18 Nordeste 0 -- -- 83
2020-09-20 00:00:00 21.6 5 Nordeste 12 Este 0 -- -- 80
2020-09-19 23:00:00 22.5 3 Nordeste 9 Oeste 0 -- -- 75
2020-09-19 22:00:00 22.7 4 Sudoeste 12 Oeste 0 -- -- 76
2020-09-19 21:00:00 23.7 4 Oeste 18 Sudoeste 0 -- -- 71
2020-09-19 20:00:00 25.1 9 Oeste 28 Oeste 0 -- -- 66
2020-09-19 19:00:00 26.8 11 Oeste 23 Sudoeste 0 -- -- 60
2020-09-19 18:00:00 25.6 10 Este 26 Nordeste 0.2 -- -- 76
2020-09-19 17:00:00 25.7 5 Sudoeste 23 Sudeste 0 -- -- 70
2020-09-19 16:00:00 26.4 5 Sudeste 16 Este 0 -- -- 73
2020-09-19 15:00:00 26.1 7 Este 21 Sudeste 0.2 -- -- 78
2020-09-19 14:00:00 28.8 9 Sur 26 Sur 0 -- -- 65
2020-09-19 13:00:00 27.7 11 Sur 24 Sudeste 0 -- -- 68
2020-09-19 12:00:00 27.3 8 Sur 18 Sur 0 -- -- 62
2020-09-19 11:00:00 24.9 7 Sur 13 Sur 0 -- -- 71
2020-09-19 10:00:00 21.8 0 Calma 8 Este 0 -- -- 76
2020-09-19 09:00:00 19.3 3 Este 10 Oeste 0 -- -- 85
2020-09-19 08:00:00 17.7 6 Noroeste 9 Noroeste 0 -- -- 88
2020-09-19 07:00:00 18 5 Noroeste 7 Oeste 0 -- -- 88
2020-09-19 06:00:00 18.6 0 Calma 9 Noroeste 0 -- -- 89
2020-09-19 05:00:00 18.6 0 Calma 7 Norte 0 -- -- 89
2020-09-19 04:00:00 19.3 0 Calma 6 Este 0 -- -- 88
2020-09-19 03:00:00 19.5 3 Noroeste 10 Noroeste 0 -- -- 87
2020-09-19 02:00:00 20.1 4 Noroeste 9 Noroeste 0 -- -- 86
2020-09-19 01:00:00 20.2 2 Norte 8 Noroeste 0 -- -- 86
2020-09-19 00:00:00 20.8 2 Oeste 6 Oeste 0 -- -- 83
2020-09-18 23:00:00 21.7 0 Calma 8 Noroeste 0 -- -- 79
2020-09-18 22:00:00 22.6 0 Calma 6 Noroeste 0 -- -- 76
2020-09-18 21:00:00 23 0 Calma 5 Oeste 0 -- -- 71
2020-09-18 20:00:00 23.5 4 Sudeste 9 Oeste 0.2 -- -- 70
2020-09-18 19:00:00 24.7 5 Sudoeste 15 Oeste 0 -- -- 65
2020-09-18 18:00:00 24.2 8 Sudoeste 14 Sudoeste 0 -- -- 70
2020-09-18 17:00:00 22.7 5 Noroeste 11 Oeste 0 -- -- 77
2020-09-18 16:00:00 22.5 5 Oeste 19 Oeste 0.4 -- -- 77
2020-09-18 15:00:00 25.3 13 Noroeste 28 Noroeste 0 -- -- 62
2020-09-18 14:00:00 26.3 12 Sudoeste 26 Sudoeste 0 -- -- 55
2020-09-18 13:00:00 27.4 14 Sudoeste 24 Sudoeste 0 -- -- 50
2020-09-18 12:00:00 28.1 12 Oeste 25 Oeste 0 -- -- 45
2020-09-18 11:00:00 25.2 4 Sudoeste 10 Sudoeste 0 -- -- 58
2020-09-18 10:00:00 22.3 0 Calma 6 Sur 0 -- -- 73
2020-09-18 09:00:00 21.6 4 Este 10 Este 0 -- -- 77
2020-09-18 08:00:00 20.3 0 Calma 4 Norte 0 -- -- 82
2020-09-18 07:00:00 20 2 Este 4 Este 0 -- -- 82
2020-09-18 06:00:00 20.2 2 Sudoeste 5 Sur 0 -- -- 81
2020-09-18 05:00:00 20.6 2 Noroeste 7 Oeste 0 -- -- 77
2020-09-18 04:00:00 21 2 Noroeste 8 Nordeste 0 -- -- 78
2020-09-18 03:00:00 21.2 3 Nordeste 8 Este 0 -- -- 77
2020-09-18 02:00:00 21.7 0 Calma 6 Sur 0 -- -- 76
2020-09-18 01:00:00 22.4 0 Calma 5 Sur 0 -- -- 76
2020-09-18 00:00:00 23.1 3 Sur 5 Sur 0 -- -- 76
2020-09-17 23:00:00 23.1 0 Calma 5 Sudoeste 0 -- -- 80
2020-09-17 22:00:00 23.5 0 Calma 7 Sudeste 0 -- -- 79
2020-09-17 21:00:00 23.8 3 Sur 10 Sudeste 0 -- -- 77
2020-09-17 20:00:00 24.8 5 Sudeste 12 Sudeste 0 -- -- 70
2020-09-17 19:00:00 26.1 6 Sudeste 18 Sudeste 0 -- -- 59
2020-09-17 18:00:00 26.6 8 Sudeste 17 Sudeste 0 -- -- 56
2020-09-17 17:00:00 27.8 8 Sudeste 22 Sudeste 0 -- -- 51
2020-09-17 16:00:00 30.1 9 Sur 23 Sur 0 -- -- 45
2020-09-17 15:00:00 30.6 10 Sur 23 Sur 0 -- -- 41
2020-09-17 14:00:00 30.8 11 Sur 22 Sur 0 -- -- 41
2020-09-17 13:00:00 31 8 Sur 19 Sudoeste 0 -- -- 40
2020-09-17 12:00:00 30.2 5 Sudeste 13 Sudeste 0 -- -- 43
2020-09-17 11:00:00 27.9 3 Sudoeste 7 Sudoeste 0 -- -- 51
2020-09-17 10:00:00 23.3 3 Sudoeste 8 Este 0 -- -- 62
2020-09-17 09:00:00 21 2 Sudoeste 5 Oeste 0 -- -- 68
2020-09-17 08:00:00 19 0 Calma 8 Sudeste 0 -- -- 77
2020-09-17 07:00:00 19.9 4 Noroeste 9 Noroeste 0 -- -- 69
2020-09-17 06:00:00 19.3 4 Noroeste 6 Oeste 0 -- -- 76
2020-09-17 05:00:00 20 3 Sudoeste 6 Sudoeste 0 -- -- 80
2020-09-17 04:00:00 20 2 Norte 8 Noroeste 0 -- -- 80
2020-09-17 03:00:00 20.2 0 Calma 7 Noroeste 0 -- -- 79
2020-09-17 02:00:00 20.6 0 Calma 8 Oeste 0 -- -- 79
2020-09-17 01:00:00 21.6 4 Noroeste 10 Noroeste 0 -- -- 78
2020-09-17 00:00:00 22.4 3 Noroeste 8 Noroeste 0 -- -- 80
2020-09-16 23:00:00 23.3 3 Noroeste 7 Noroeste 0 -- -- 77
2020-09-16 22:00:00 24.1 2 Noroeste 6 Norte 0 -- -- 71
2020-09-16 21:00:00 24.8 0 Calma 8 Nordeste 0 -- -- 67
2020-09-16 20:00:00 25.2 4 Nordeste 7 Este 0 -- -- 68
2020-09-16 19:00:00 25.5 3 Sudeste 10 Sudeste 0 -- -- 68
2020-09-16 18:00:00 26.1 6 Sudeste 16 Sudeste 0 -- -- 67
2020-09-16 17:00:00 27.8 6 Sudeste 17 Este 0 -- -- 65
2020-09-16 16:00:00 28.8 9 Sur 17 Sudoeste 0 -- -- 62
2020-09-16 15:00:00 29.4 8 Sur 18 Sudeste 0 -- -- 59
2020-09-16 14:00:00 29.9 7 Sur 16 Sur 0 -- -- 57
2020-09-16 13:00:00 29.2 7 Sur 12 Sur 0 -- -- 58
2020-09-16 12:00:00 27 4 Sudeste 12 Sudeste 0 -- -- 70
2020-09-16 11:00:00 25.1 3 Sur 8 Sudoeste 0 -- -- 76
2020-09-16 10:00:00 22.6 2 Este 7 Nordeste 0 -- -- 86
2020-09-16 09:00:00 20.5 4 Oeste 6 Noroeste 0 -- -- 90
2020-09-16 08:00:00 19.5 2 Oeste 4 Noroeste 0 -- -- 93
2020-09-16 07:00:00 19.5 0 Calma 5 Sudeste 0 -- -- 92
2020-09-16 06:00:00 20 0 Calma 6 Oeste 0 -- -- 91
2020-09-16 05:00:00 20.5 2 Oeste 4 Noroeste 0 -- -- 91
2020-09-16 04:00:00 20.6 3 Oeste 5 Norte 0 -- -- 90
2020-09-16 03:00:00 21.7 0 Calma 5 Noroeste 0 -- -- 88
2020-09-16 02:00:00 22 0 Calma 6 Este 0 -- -- 88
2020-09-16 01:00:00 22.5 2 Noroeste 6 Este 0 -- -- 89
2020-09-16 00:00:00 23.2 4 Nordeste 10 Nordeste 0 -- -- 88
2020-09-15 23:00:00 23.6 4 Nordeste 11 Nordeste 0 -- -- 87
2020-09-15 22:00:00 23.8 3 Norte 8 Nordeste 0 -- -- 87
2020-09-15 21:00:00 24.1 3 Norte 10 Nordeste 0 -- -- 86
2020-09-15 20:00:00 24.7 4 Este 12 Este 0 -- -- 83
2020-09-15 19:00:00 25.3 6 Sudeste 17 Sudeste 0 -- -- 81
2020-09-15 18:00:00 25.9 8 Sudeste 18 Sudeste 0 -- -- 79
2020-09-15 17:00:00 26.9 6 Sur 20 Sur 0 -- -- 72
2020-09-15 16:00:00 27.1 8 Sur 20 Sur 0 -- -- 69
2020-09-15 15:00:00 27.4 10 Sur 20 Sur 0 -- -- 69
2020-09-15 14:00:00 28.5 8 Sudeste 17 Sudoeste 0 -- -- 59
2020-09-15 13:00:00 28.6 8 Sur 17 Sudeste 0 -- -- 54
2020-09-15 12:00:00 26.7 4 Sudeste 12 Este 0 -- -- 54
2020-09-15 11:00:00 25.7 4 Sudeste 9 Sudeste 0 -- -- 57
2020-09-15 10:00:00 23.1 4 Este 12 Nordeste 0 -- -- 71
2020-09-15 09:00:00 20.3 5 Norte 9 Norte 0 -- -- 84
2020-09-15 08:00:00 17.8 3 Noroeste 9 Nordeste 0 -- -- 94
2020-09-15 07:00:00 18.1 0 Calma 8 Norte 0 -- -- 97
2020-09-15 06:00:00 17.4 0 Calma 5 Sudoeste 0 -- -- 92
2020-09-15 05:00:00 17.9 0 Calma 7 Noroeste 0 -- -- 90
2020-09-15 04:00:00 18.2 4 Noroeste 7 Noroeste 0 -- -- 90
2020-09-15 03:00:00 18.9 0 Calma 8 Sur 0 -- -- 90
2020-09-15 02:00:00 19.6 0 Calma 6 Noroeste 0 -- -- 89
2020-09-15 01:00:00 20.5 2 Sudoeste 5 Oeste 0 -- -- 86
2020-09-15 00:00:00 21.8 0 Calma 5 Noroeste 0 -- -- 85
2020-09-14 23:00:00 22.5 2 Norte 6 Nordeste 0 -- -- 85
2020-09-14 22:00:00 23 2 Nordeste 8 Nordeste 0 -- -- 84
2020-09-14 21:00:00 23.3 4 Este 9 Este 0 -- -- 86
2020-09-14 20:00:00 24 5 Sudeste 14 Sudeste 0 -- -- 82
2020-09-14 19:00:00 25.4 6 Sudeste 17 Este 0 -- -- 75
2020-09-14 18:00:00 26 10 Sudeste 21 Este 0 -- -- 74
2020-09-14 17:00:00 27.6 9 Sudeste 23 Sudeste 0 -- -- 62
2020-09-14 16:00:00 28.7 10 Sur 26 Sudeste 0 -- -- 53
2020-09-14 15:00:00 29.1 10 Sur 23 Sur 0 -- -- 47
2020-09-14 14:00:00 29.4 9 Sur 20 Sudeste 0 -- -- 51
2020-09-14 13:00:00 29.2 8 Sur 14 Sur 0 -- -- 48
2020-09-14 12:00:00 27.8 4 Sudeste 12 Sudeste 0 -- -- 53
2020-09-14 11:00:00 24.8 3 Sudeste 9 Sur 0 -- -- 62
2020-09-14 10:00:00 23.2 3 Sudeste 8 Sur 0 -- -- 65
2020-09-14 09:00:00 19.7 0 Calma 4 Sudoeste 0 -- -- 77
2020-09-14 08:00:00 17.4 3 Sudoeste 4 Sudoeste 0 -- -- 83
2020-09-14 07:00:00 17.9 0 Calma 6 Norte 0 -- -- 81
2020-09-14 06:00:00 17.8 4 Noroeste 6 Noroeste 0 -- -- 81
2020-09-14 05:00:00 17.9 2 Norte 6 Noroeste 0 -- -- 81
2020-09-14 04:00:00 18.2 2 Oeste 4 Sudoeste 0 -- -- 83
2020-09-14 03:00:00 19.4 0 Calma 6 Noroeste 0 -- -- 80
2020-09-14 02:00:00 19.7 3 Norte 6 Oeste 0 -- -- 80
2020-09-14 01:00:00 19.7 2 Sudoeste 6 Sudeste 0 -- -- 79
2020-09-14 00:00:00 21.3 0 Calma 6 Oeste 0 -- -- 75
2020-09-13 23:00:00 21.8 4 Noroeste 9 Oeste 0 -- -- 74
2020-09-13 22:00:00 23 2 Sudeste 6 Este 0 -- -- 75
2020-09-13 21:00:00 23.5 0 Calma 5 Sur 0 -- -- 69
2020-09-13 20:00:00 24.3 4 Sur 12 Sur 0 -- -- 66
2020-09-13 19:00:00 26.1 9 Sur 16 Sur 0 -- -- 54
2020-09-13 18:00:00 28.6 9 Sur 19 Sudoeste 0 -- -- 47
2020-09-13 17:00:00 30.7 9 Sur 20 Sudoeste 0 -- -- 43
2020-09-13 16:00:00 31.5 11 Sur 20 Sur 0 -- -- 39
2020-09-13 15:00:00 32.7 6 Sur 15 Este 0 -- -- 34
2020-09-13 14:00:00 32.2 5 Sudeste 13 Sur 0 -- -- 35
2020-09-13 13:00:00 31.3 6 Este 13 Sudeste 0 -- -- 35
2020-09-13 12:00:00 30.2 6 Sudeste 15 Sudeste 0 -- -- 37
2020-09-13 11:00:00 29.9 4 Este 9 Este 0 -- -- 37
2020-09-13 10:00:00 26.2 0 Calma 5 Noroeste 0 -- -- 51
2020-09-13 09:00:00 22.7 0 Calma 7 Noroeste 0 -- -- 59
2020-09-13 08:00:00 21.1 5 Noroeste 10 Noroeste 0 -- -- 56
2020-09-13 07:00:00 22.7 5 Norte 12 Norte 0 -- -- 48
2020-09-13 06:00:00 20.7 5 Noroeste 10 Oeste 0 -- -- 60
2020-09-13 05:00:00 20.2 5 Noroeste 11 Noroeste 0 -- -- 67
2020-09-13 04:00:00 20.8 6 Noroeste 14 Noroeste -- -- -- 65
2020-09-13 03:00:00 20.8 5 Noroeste 11 Oeste 0 -- -- 66
2020-09-13 02:00:00 20.8 7 Noroeste 12 Noroeste 0 -- -- 66
2020-09-13 01:00:00 21.6 5 Noroeste 9 Noroeste 0 -- -- 65
2020-09-13 00:00:00 23 3 Noroeste 10 Noroeste 0 -- -- 60
2020-09-12 23:00:00 23.9 5 Noroeste 9 Noroeste 0 -- -- 59
2020-09-12 22:00:00 25.7 3 Este 10 Este 0 -- -- 52
2020-09-12 21:00:00 27.1 4 Noroeste 8 Noroeste 0 -- -- 48
2020-09-12 20:00:00 28 5 Oeste 14 Sur 0 -- -- 43
2020-09-12 19:00:00 29.4 9 Sudoeste 17 Sudoeste 0 -- -- 42
2020-09-12 18:00:00 31.5 7 Sur 15 Sudeste 0 -- -- 39
2020-09-12 17:00:00 32.6 6 Este 21 Nordeste 0 -- -- 34
2020-09-12 16:00:00 33.1 8 Nordeste 25 Nordeste 0 -- -- 31
2020-09-12 15:00:00 32.8 8 Nordeste 23 Norte 0 -- -- 32
2020-09-12 14:00:00 32.7 8 Nordeste 26 Nordeste 0 -- -- 33
2020-09-12 13:00:00 31.5 12 Nordeste 26 Nordeste 0 -- -- 35
2020-09-12 12:00:00 31 8 Nordeste 23 Este 0 -- -- 35
2020-09-12 11:00:00 30.3 10 Nordeste 22 Nordeste 0 -- -- 36
2020-09-12 10:00:00 29 6 Este 14 Nordeste 0 -- -- 44
2020-09-12 09:00:00 24 0 Calma 5 Oeste 0 -- -- 60
2020-09-12 08:00:00 20.7 0 Calma 9 Noroeste 0 -- -- 67
2020-09-12 07:00:00 20.5 5 Noroeste 11 Noroeste 0 -- -- 69
2020-09-12 06:00:00 21 5 Noroeste 12 Oeste 0 -- -- 70
2020-09-12 05:00:00 20.5 6 Noroeste 10 Noroeste 0 -- -- 73
2020-09-12 04:00:00 20.2 3 Oeste 6 Oeste 0 -- -- 75
2020-09-12 03:00:00 20.4 3 Norte 8 Noroeste 0 -- -- 75
2020-09-12 02:00:00 21.4 3 Noroeste 7 Noroeste 0 -- -- 74
2020-09-12 01:00:00 22.2 4 Noroeste 7 Oeste 0 -- -- 72
2020-09-12 00:00:00 22.6 2 Este 10 Este 0 -- -- 71
2020-09-11 23:00:00 22.9 4 Oeste 9 Oeste 0 -- -- 68
2020-09-11 22:00:00 24.3 0 Calma 8 Oeste 0 -- -- 60
2020-09-11 21:00:00 24.7 4 Oeste 13 Sur 0 -- -- 60
2020-09-11 20:00:00 26.5 7 Sudoeste 14 Sudoeste 0 -- -- 57
2020-09-11 19:00:00 29.8 8 Sudeste 20 Sur 0 -- -- 43
2020-09-11 18:00:00 30.9 8 Este 30 Nordeste 0 -- -- 40
2020-09-11 17:00:00 31.3 11 Este 30 Este 0 -- -- 40
2020-09-11 16:00:00 30.9 13 Este 31 Nordeste 0 -- -- 40
2020-09-11 15:00:00 30.8 13 Nordeste 36 Nordeste 0 -- -- 40
2020-09-11 14:00:00 30.4 16 Nordeste 41 Nordeste 0 -- -- 42
2020-09-11 13:00:00 29.4 12 Nordeste 44 Nordeste 0 -- -- 44
2020-09-11 12:00:00 28.6 14 Nordeste 41 Nordeste 0 -- -- 44
2020-09-11 11:00:00 28.7 14 Nordeste 32 Este 0 -- -- 45
2020-09-11 10:00:00 27.3 12 Nordeste 27 Nordeste 0 -- -- 49
2020-09-11 09:00:00 23.6 7 Nordeste 15 Nordeste 0 -- -- 60
2020-09-11 08:00:00 20.9 3 Nordeste 10 Norte 0 -- -- 70
2020-09-11 07:00:00 20.2 4 Noroeste 9 Noroeste 0 -- -- 78
2020-09-11 06:00:00 20 3 Oeste 10 Noroeste 0 -- -- 78
2020-09-11 05:00:00 20 6 Noroeste 11 Norte 0 -- -- 81
2020-09-11 04:00:00 20.5 4 Noroeste 11 Noroeste 0 -- -- 81
2020-09-11 03:00:00 21.3 5 Noroeste 12 Noroeste 0 -- -- 77
2020-09-11 02:00:00 21.1 5 Noroeste 13 Noroeste 0 -- -- 81
2020-09-11 01:00:00 21.2 3 Noroeste 14 Oeste 0.2 -- -- 83
2020-09-11 00:00:00 22 5 Sudoeste 13 Sudoeste 0 -- -- 78
2020-09-10 23:00:00 23.1 5 Noroeste 9 Noroeste 0 -- -- 71
2020-09-10 22:00:00 23.7 3 Noroeste 10 Oeste 0 -- -- 67
2020-09-10 21:00:00 25 0 Calma 10 Este 0 -- -- 58
2020-09-10 20:00:00 25.5 5 Este 16 Nordeste 0 -- -- 57
2020-09-10 19:00:00 25.5 3 Sudeste 16 Nordeste 0 -- -- 61
2020-09-10 18:00:00 26.3 3 Este 12 Este 0 -- -- 55
2020-09-10 17:00:00 27.2 6 Este 20 Nordeste 0 -- -- 51
2020-09-10 16:00:00 26.5 6 Este 24 Nordeste 0 -- -- 58
2020-09-10 15:00:00 26 9 Nordeste 30 Este 0 -- -- 57
2020-09-10 14:00:00 27.3 12 Nordeste 28 Nordeste 0 -- -- 53
2020-09-10 13:00:00 27.4 10 Nordeste 27 Este 0 -- -- 50
2020-09-10 12:00:00 26.6 11 Nordeste 34 Nordeste 0 -- -- 52
2020-09-10 11:00:00 26.7 13 Nordeste 31 Nordeste 0 -- -- 52
2020-09-10 10:00:00 24.8 13 Nordeste 25 Nordeste 0 -- -- 57
2020-09-10 09:00:00 19.9 6 Noroeste 14 Noroeste 0 -- -- 78
2020-09-10 08:00:00 17.8 6 Noroeste 11 Noroeste 0 -- -- 84
2020-09-10 07:00:00 18.4 4 Noroeste 10 Oeste 0 -- -- 83
2020-09-10 06:00:00 18.8 0 Calma 5 Norte 0 -- -- 84
2020-09-10 05:00:00 18.6 0 Calma 8 Norte 0 -- -- 86
2020-09-10 04:00:00 19.1 0 Calma 4 Oeste 0 -- -- 85
2020-09-10 03:00:00 19.6 0 Calma 9 Noroeste 0 -- -- 84
2020-09-10 02:00:00 19.7 0 Calma 5 Nordeste 0 -- -- 85
2020-09-10 01:00:00 20.6 3 Este 14 Norte 0 -- -- 81
2020-09-10 00:00:00 20.3 4 Norte 9 Norte 0 -- -- 82
2020-09-09 23:00:00 20.6 0 Calma 6 Este 0 -- -- 80
2020-09-09 22:00:00 21.2 4 Este 16 Nordeste 0 -- -- 79
2020-09-09 21:00:00 21.9 6 Nordeste 15 Nordeste 0 -- -- 74
2020-09-09 20:00:00 23 4 Este 15 Nordeste 0 -- -- 71
2020-09-09 19:00:00 24.1 4 Este 21 Nordeste 0 -- -- 67
2020-09-09 18:00:00 24.8 9 Nordeste 22 Nordeste 0 -- -- 62
2020-09-09 17:00:00 25.5 10 Norte 27 Nordeste 0 -- -- 59
2020-09-09 16:00:00 25 5 Nordeste 30 Nordeste 0 -- -- 62
2020-09-09 15:00:00 25.5 13 Nordeste 30 Nordeste 0 -- -- 59
2020-09-09 14:00:00 24.9 13 Nordeste 29 Nordeste 0 -- -- 64
2020-09-09 13:00:00 24 10 Nordeste 24 Nordeste 0 -- -- 64
2020-09-09 12:00:00 23.6 2 Noroeste 17 Norte 0 -- -- 67
2020-09-09 11:00:00 22.3 7 Nordeste 18 Norte 0 -- -- 77
2020-09-09 10:00:00 19.2 7 Nordeste 13 Nordeste 0.6 -- -- 88
2020-09-09 09:00:00 18.2 5 Norte 12 Norte 1.2 -- -- 94
2020-09-09 08:00:00 18.4 5 Nordeste 14 Nordeste 1.6 -- -- 93
2020-09-09 07:00:00 19.1 7 Nordeste 17 Nordeste 0 -- -- 88
2020-09-09 06:00:00 19.4 8 Nordeste 20 Nordeste 0.4 -- -- 86
2020-09-09 05:00:00 19.8 10 Nordeste 19 Nordeste 0 -- -- 81
2020-09-09 04:00:00 19.3 3 Norte 14 Nordeste 0.2 -- -- 86
2020-09-09 03:00:00 19.1 5 Norte 12 Norte 1 -- -- 87
2020-09-09 02:00:00 19 0 Calma 5 Noroeste 0.4 -- -- 90
2020-09-09 01:00:00 19.1 0 Calma 7 Noroeste 0 -- -- 88
2020-09-09 00:00:00 18.9 3 Oeste 9 Oeste 0 -- -- 85
2020-09-08 23:00:00 18.8 4 Sudoeste 7 Oeste 0 -- -- 87
2020-09-08 22:00:00 18.6 3 Noroeste 8 Norte 0 -- -- 87
2020-09-08 21:00:00 19.3 3 Sur 16 Nordeste 0 -- -- 84
2020-09-08 20:00:00 19.6 6 Norte 14 Norte 0.2 -- -- 79
2020-09-08 19:00:00 19.2 5 Norte 20 Norte 0 -- -- 79
2020-09-08 18:00:00 18.6 7 Norte 16 Nordeste 5.2 -- -- 85
2020-09-08 17:00:00 19.5 11 Sudeste 35 Sur 2 -- -- 79
2020-09-08 16:00:00 25.8 8 Sudeste 26 Sudeste 0 -- -- 42
2020-09-08 15:00:00 27.1 10 Este 27 Sudeste 0 -- -- 39
2020-09-08 14:00:00 27.2 9 Nordeste 32 Norte 0 -- -- 38
2020-09-08 13:00:00 27.2 11 Nordeste 28 Este 0 -- -- 36
2020-09-08 12:00:00 25.8 11 Nordeste 32 Nordeste 0 -- -- 38
2020-09-08 11:00:00 25.6 14 Este 32 Este 0 -- -- 37
2020-09-08 10:00:00 24 11 Este 28 Este 0 -- -- 39
2020-09-08 09:00:00 22.3 11 Este 27 Este 0 -- -- 41
2020-09-08 08:00:00 21.6 10 Nordeste 28 Nordeste 0 -- -- 42
2020-09-08 07:00:00 21.4 10 Nordeste 40 Nordeste 0 -- -- 42
2020-09-08 06:00:00 21.5 14 Nordeste 41 Norte 0 -- -- 41
2020-09-08 05:00:00 21.6 15 Nordeste 38 Nordeste 0 -- -- 41
2020-09-08 04:00:00 21.1 8 Nordeste 32 Nordeste 0 -- -- 42
2020-09-08 03:00:00 21.4 10 Nordeste 39 Nordeste 0 -- -- 42
2020-09-08 02:00:00 21.8 16 Nordeste 43 Este 0 -- -- 40
2020-09-08 01:00:00 21.7 13 Nordeste 39 Nordeste 0 -- -- 41
2020-09-08 00:00:00 21.6 15 Nordeste 36 Norte 0 -- -- 40
2020-09-07 23:00:00 21.8 15 Nordeste 35 Nordeste 0 -- -- 40
2020-09-07 22:00:00 21.8 13 Nordeste 40 Nordeste 0 -- -- 39
2020-09-07 21:00:00 21.8 13 Nordeste 49 Nordeste 0 -- -- 39
2020-09-07 20:00:00 22.3 14 Nordeste 55 Nordeste 0 -- -- 38
2020-09-07 19:00:00 23.5 20 Nordeste 51 Nordeste 0 -- -- 36
2020-09-07 18:00:00 23.8 23 Nordeste 54 Nordeste 0 -- -- 35
2020-09-07 17:00:00 24.6 22 Nordeste 54 Nordeste 0 -- -- 34
2020-09-07 16:00:00 24.7 21 Nordeste 48 Nordeste 0 -- -- 33
2020-09-07 15:00:00 24.4 16 Nordeste 45 Nordeste 0 -- -- 37
2020-09-07 14:00:00 24.4 18 Nordeste 47 Nordeste 0 -- -- 38
2020-09-07 13:00:00 24 17 Nordeste 44 Nordeste 0 -- -- 39
2020-09-07 12:00:00 23.2 18 Nordeste 42 Este 0 -- -- 40
2020-09-07 11:00:00 22.6 16 Nordeste 46 Nordeste 0 -- -- 42
2020-09-07 10:00:00 20.2 16 Nordeste 42 Nordeste 0 -- -- 48
2020-09-07 09:00:00 19.3 16 Nordeste 40 Norte 0 -- -- 49
2020-09-07 08:00:00 19.4 18 Nordeste 45 Nordeste 0 -- -- 50
2020-09-07 07:00:00 18.9 15 Nordeste 40 Este 0.2 -- -- 53
2020-09-07 06:00:00 18.1 18 Nordeste 48 Nordeste 0 -- -- 62
2020-09-07 05:00:00 18.7 18 Nordeste 43 Nordeste 0.8 -- -- 58
2020-09-07 04:00:00 17.5 15 Nordeste 30 Nordeste 2.6 -- -- 68
2020-09-07 03:00:00 19.1 18 Nordeste 40 Nordeste 0.2 -- -- 60
2020-09-07 02:00:00 19.4 14 Nordeste 39 Nordeste 0 -- -- 67
2020-09-07 01:00:00 20.2 8 Nordeste 26 Nordeste 0 -- -- 63
2020-09-07 00:00:00 19.6 10 Nordeste 29 Nordeste 0 -- -- 66
2020-09-06 23:00:00 18 3 Norte 26 Nordeste 0.4 -- -- 77
2020-09-06 22:00:00 18.3 10 Norte 26 Norte 1.8 -- -- 77
2020-09-06 21:00:00 18.7 6 Nordeste 25 Nordeste 0.4 -- -- 78
2020-09-06 20:00:00 18.2 11 Nordeste 40 Nordeste 1 -- -- 83
2020-09-06 19:00:00 19.7 16 Nordeste 46 Nordeste 0 -- -- 71
2020-09-06 18:00:00 22.7 19 Nordeste 37 Nordeste 0 -- -- 55
2020-09-06 17:00:00 24.1 17 Nordeste 38 Nordeste 0 -- -- 52
2020-09-06 16:00:00 24 18 Nordeste 42 Nordeste 0 -- -- 53
2020-09-06 15:00:00 23.5 16 Nordeste 35 Nordeste 0 -- -- 55
2020-09-06 14:00:00 23.8 15 Nordeste 32 Nordeste 0 -- -- 56
2020-09-06 13:00:00 24 13 Nordeste 30 Nordeste 0 -- -- 58
2020-09-06 12:00:00 23.8 14 Nordeste 36 Nordeste 0 -- -- 59
2020-09-06 11:00:00 24.1 14 Nordeste 36 Nordeste 0 -- -- 58
2020-09-06 10:00:00 24.1 14 Nordeste 30 Nordeste 0 -- -- 60
2020-09-06 09:00:00 23 11 Nordeste 24 Nordeste 0 -- -- 63
2020-09-06 08:00:00 23.3 8 Nordeste 18 Nordeste 0 -- -- 61
2020-09-06 07:00:00 22.8 6 Nordeste 17 Nordeste 0 -- -- 63
2020-09-06 06:00:00 23.5 6 Nordeste 27 Nordeste 0 -- -- 60
2020-09-06 05:00:00 23.8 11 Nordeste 29 Nordeste 0 -- -- 60
2020-09-06 04:00:00 22.8 6 Norte 24 Norte 0 -- -- 66
2020-09-06 03:00:00 22.8 7 Norte 18 Nordeste 0 -- -- 65
2020-09-06 02:00:00 20.8 6 Noroeste 10 Noroeste 0 -- -- 77
2020-09-06 01:00:00 20.8 6 Noroeste 13 Noroeste 0 -- -- 82
2020-09-06 00:00:00 21.9 5 Norte 11 Noroeste 0 -- -- 81
2020-09-05 23:00:00 22.5 3 Noroeste 5 Nordeste 0 -- -- 82
2020-09-05 22:00:00 22.9 2 Nordeste 10 Nordeste 0 -- -- 83
2020-09-05 21:00:00 23 3 Sur 9 Sudeste 0 -- -- 83
2020-09-05 20:00:00 24.2 4 Sudeste 14 Sudeste 0 -- -- 76
2020-09-05 19:00:00 26.1 6 Sudeste 19 Sur 0 -- -- 65
2020-09-05 18:00:00 26.6 8 Sur 20 Sudoeste 0 -- -- 62
2020-09-05 17:00:00 27.6 9 Sur 22 Sudoeste 0 -- -- 60
2020-09-05 16:00:00 28.3 10 Sur 18 Sur 0 -- -- 57
2020-09-05 15:00:00 28.6 8 Sudeste 19 Este 0 -- -- 57
2020-09-05 14:00:00 28.2 4 Norte 14 Sur 0 -- -- 55
2020-09-05 13:00:00 27.4 4 Este 10 Sur 0 -- -- 59
2020-09-05 12:00:00 25 3 Noroeste 9 Noroeste 0 -- -- 68
2020-09-05 11:00:00 24.4 4 Sur 8 Oeste 0 -- -- 70
2020-09-05 10:00:00 22.5 3 Nordeste 6 Este 0 -- -- 77
2020-09-05 09:00:00 21.8 3 Este 6 Este 0 -- -- 74
2020-09-05 08:00:00 21.3 4 Nordeste 8 Norte 0 -- -- 75
2020-09-05 07:00:00 21.2 4 Nordeste 9 Nordeste 0 -- -- 75
2020-09-05 06:00:00 21.4 4 Este 6 Este 0 -- -- 73
2020-09-05 05:00:00 21.6 0 Calma 4 Sudoeste 0 -- -- 75
2020-09-05 04:00:00 21.5 0 Calma 6 Nordeste 0 -- -- 73
2020-09-05 03:00:00 21.5 4 Este 5 Este 0 -- -- 73
2020-09-05 02:00:00 21.7 2 Sudoeste 5 Sur 0 -- -- 74
2020-09-05 01:00:00 21.8 2 Noroeste 4 Noroeste 0 -- -- 76
2020-09-05 00:00:00 21.7 2 Sudoeste 4 Sur 0 -- -- 71
2020-09-04 23:00:00 21.7 0 Calma 5 Noroeste 0 -- -- 70
2020-09-04 22:00:00 21.9 3 Norte 6 Noroeste 0 -- -- 70
2020-09-04 21:00:00 22 3 Sur 12 Este 0 -- -- 70
2020-09-04 20:00:00 23.1 5 Sudeste 13 Sur 0 -- -- 70
2020-09-04 19:00:00 24.7 6 Sudeste 19 Sur 0 -- -- 57
2020-09-04 18:00:00 25.4 10 Sur 22 Sur 0 -- -- 56
2020-09-04 17:00:00 26.4 10 Sur 23 Sur 0 -- -- 56
2020-09-04 16:00:00 26.7 12 Sur 26 Sur 0 -- -- 54
2020-09-04 15:00:00 28 12 Sur 23 Sur 0 -- -- 53
2020-09-04 14:00:00 28.9 10 Sudeste 20 Sudeste 0 -- -- 50
2020-09-04 13:00:00 28.9 7 Sur 15 Sur 0 -- -- 46
2020-09-04 12:00:00 27.6 5 Sudeste 11 Sudeste 0 -- -- 50
2020-09-04 11:00:00 25.6 2 Sur 8 Sudeste 0 -- -- 54
2020-09-04 10:00:00 23 2 Sudoeste 5 Sudeste 0 -- -- 63
2020-09-04 09:00:00 20 0 Calma 5 Sudoeste 0 -- -- 73
2020-09-04 08:00:00 16.3 2 Noroeste 4 Noroeste 0 -- -- 84
2020-09-04 07:00:00 16.7 0 Calma 6 Noroeste 0 -- -- 82
2020-09-04 06:00:00 17.1 0 Calma 7 Noroeste 0 -- -- 81
2020-09-04 05:00:00 16.8 2 Noroeste 5 Noroeste 0 -- -- 81
2020-09-04 04:00:00 16.8 2 Sudoeste 4 Sudoeste 0 -- -- 80
2020-09-04 03:00:00 18.5 2 Noroeste 6 Noroeste 0 -- -- 72
2020-09-04 02:00:00 18.3 4 Noroeste 6 Noroeste 0 -- -- 70
2020-09-04 01:00:00 19.4 3 Norte 6 Noroeste 0 -- -- 66
2020-09-04 00:00:00 20.1 0 Calma 5 Norte 0 -- -- 66
2020-09-03 23:00:00 21.6 3 Norte 8 Norte 0 -- -- 59
2020-09-03 22:00:00 22.1 5 Nordeste 10 Nordeste 0 -- -- 58
2020-09-03 21:00:00 22.7 4 Este 9 Este 0 -- -- 62
2020-09-03 20:00:00 23.6 5 Sudeste 14 Sur 0 -- -- 61
2020-09-03 19:00:00 25.1 7 Sur 21 Sudeste 0 -- -- 49
2020-09-03 18:00:00 26 8 Sudeste 22 Sudoeste 0 -- -- 46
2020-09-03 17:00:00 27.3 10 Sur 24 Sur 0 -- -- 43
2020-09-03 16:00:00 28 12 Sur 26 Sur 0 -- -- 42
2020-09-03 15:00:00 29.3 10 Sur 20 Sur 0 -- -- 35
2020-09-03 14:00:00 28.4 5 Este 16 Nordeste 0 -- -- 32
2020-09-03 13:00:00 28.2 5 Sudeste 16 Nordeste 0 -- -- 34
2020-09-03 12:00:00 26.8 4 Nordeste 21 Nordeste 0 -- -- 39
2020-09-03 11:00:00 25 12 Nordeste 26 Nordeste 0 -- -- 38
2020-09-03 10:00:00 23.9 9 Nordeste 19 Nordeste 0 -- -- 41
2020-09-03 09:00:00 22.3 6 Norte 19 Norte 0 -- -- 45
2020-09-03 08:00:00 17.6 4 Oeste 18 Nordeste 0 -- -- 66
2020-09-03 07:00:00 20.5 5 Norte 14 Norte 0 -- -- 47
2020-09-03 06:00:00 20.1 5 Nordeste 14 Nordeste 0 -- -- 48
2020-09-03 05:00:00 19.6 4 Noroeste 20 Nordeste 0 -- -- 55
2020-09-03 04:00:00 19.8 6 Nordeste 19 Nordeste 0 -- -- 49
2020-09-03 03:00:00 17.8 3 Oeste 9 Oeste 0 -- -- 62
2020-09-03 02:00:00 20.6 4 Norte 12 Norte 0 -- -- 47
2020-09-03 01:00:00 20.1 4 Norte 15 Nordeste 0 -- -- 56
2020-09-03 00:00:00 21.7 9 Nordeste 19 Este 0 -- -- 45
2020-09-02 23:00:00 21.7 3 Nordeste 8 Norte 0 -- -- 54
2020-09-02 22:00:00 22.2 4 Este 10 Este 0 -- -- 64
2020-09-02 21:00:00 22.8 4 Sudeste 10 Sudeste 0 -- -- 62
2020-09-02 20:00:00 24.1 4 Sur 18 Sudoeste 0 -- -- 55
2020-09-02 19:00:00 26.6 8 Sur 26 Sudoeste 0 -- -- 47
2020-09-02 18:00:00 27 11 Sudoeste 27 Sudoeste 0 -- -- 44
2020-09-02 17:00:00 27.1 12 Sudoeste 24 Sudoeste 0 -- -- 41
2020-09-02 16:00:00 28.6 5 Oeste 14 Este 0 -- -- 36
2020-09-02 15:00:00 28.8 6 Sur 14 Nordeste 0 -- -- 36
2020-09-02 14:00:00 27.5 8 Nordeste 21 Oeste 0 -- -- 38
2020-09-02 13:00:00 26.6 6 Nordeste 20 Este 0 -- -- 40
2020-09-02 12:00:00 25.8 8 Nordeste 29 Nordeste 0 -- -- 40
2020-09-02 11:00:00 23.8 13 Nordeste 28 Nordeste 0 -- -- 44
2020-09-02 10:00:00 22.5 10 Nordeste 24 Nordeste 0 -- -- 47
2020-09-02 09:00:00 20.8 4 Noroeste 15 Nordeste 0 -- -- 57
2020-09-02 08:00:00 20.8 6 Nordeste 22 Nordeste 0 -- -- 50
2020-09-02 07:00:00 21.1 9 Nordeste 28 Nordeste 0 -- -- 48
2020-09-02 06:00:00 21.1 12 Nordeste 28 Nordeste 0 -- -- 48
2020-09-02 05:00:00 21 13 Nordeste 27 Nordeste 0 -- -- 48
2020-09-02 04:00:00 20.7 8 Norte 19 Nordeste 0 -- -- 49
2020-09-02 03:00:00 21.4 6 Nordeste 30 Nordeste 0 -- -- 47
2020-09-02 02:00:00 21.5 9 Nordeste 24 Nordeste 0 -- -- 48
2020-09-02 01:00:00 21.3 10 Nordeste 25 Nordeste 0 -- -- 50
2020-09-02 00:00:00 20.8 3 Nordeste 8 Nordeste 0 -- -- 65
2020-09-01 23:00:00 21.1 3 Noroeste 7 Noroeste 0 -- -- 70
2020-09-01 22:00:00 21.6 2 Norte 5 Nordeste 0 -- -- 68
2020-09-01 21:00:00 21.7 3 Este 8 Este 0 -- -- 68
2020-09-01 20:00:00 22.1 3 Este 9 Este 0 -- -- 66
2020-09-01 19:00:00 22.5 5 Sur 13 Sur 0 -- -- 63
2020-09-01 18:00:00 23 6 Sur 20 Sudeste 0 -- -- 63
2020-09-01 17:00:00 23.5 8 Sur 24 Sudeste 0 -- -- 60
2020-09-01 16:00:00 24.9 11 Sudeste 27 Sur 0 -- -- 54
2020-09-01 15:00:00 26 11 Sur 22 Sur 0 -- -- 52
2020-09-01 14:00:00 26.4 9 Sur 20 Sur 0 -- -- 49
2020-09-01 13:00:00 25.2 5 Sudoeste 17 Sudoeste 0 -- -- 46
2020-09-01 12:00:00 24.8 5 Sur 10 Sudoeste 0 -- -- 47
2020-09-01 11:00:00 23.8 4 Oeste 12 Sur 0 -- -- 48
2020-09-01 10:00:00 21.4 2 Sur 6 Noroeste 0 -- -- 61
2020-09-01 09:00:00 17.4 3 Noroeste 8 Noroeste 0 -- -- 73
2020-09-01 08:00:00 16.6 3 Noroeste 7 Noroeste 0 -- -- 74
2020-09-01 07:00:00 16.5 4 Noroeste 7 Noroeste 0 -- -- 76
2020-09-01 06:00:00 17 2 Oeste 5 Noroeste 0 -- -- 73
2020-09-01 05:00:00 17.3 0 Calma 8 Noroeste 0 -- -- 70
2020-09-01 04:00:00 17.3 5 Noroeste 10 Oeste 0 -- -- 68
2020-09-01 03:00:00 17.3 4 Oeste 9 Noroeste 0 -- -- 69
2020-09-01 02:00:00 17.5 2 Noroeste 12 Oeste 0 -- -- 68
2020-09-01 01:00:00 19 6 Noroeste 15 Oeste 0 -- -- 62
2020-09-01 00:00:00 20.1 2 Oeste 13 Noroeste 0 -- -- 55
2020-08-31 23:00:00 21.6 5 Norte 17 Nordeste 0 -- -- 50
2020-08-31 22:00:00 21.7 4 Nordeste 14 Nordeste 0 -- -- 50
2020-08-31 21:00:00 22.6 5 Nordeste 17 Nordeste 0 -- -- 48
2020-08-31 20:00:00 24 9 Nordeste 20 Nordeste 0 -- -- 44
2020-08-31 19:00:00 25.4 3 Sur 22 Sur 0 -- -- 44
2020-08-31 18:00:00 25.2 8 Sur 26 Sur 0 -- -- 47
2020-08-31 17:00:00 26.1 7 Sur 21 Sudeste 0 -- -- 43
2020-08-31 16:00:00 26.3 3 Sur 16 Este 0 -- -- 37
2020-08-31 15:00:00 26.6 5 Noroeste 13 Sudoeste 0 -- -- 37
2020-08-31 14:00:00 26 5 Noroeste 17 Oeste 0 -- -- 40
2020-08-31 13:00:00 25.1 8 Oeste 19 Noroeste 0 -- -- 40
2020-08-31 12:00:00 23.2 8 Noroeste 17 Oeste 0 -- -- 46
2020-08-31 11:00:00 22.7 5 Nordeste 24 Nordeste 0 -- -- 46
2020-08-31 10:00:00 20.7 11 Nordeste 33 Nordeste 0 -- -- 50
2020-08-31 09:00:00 19.3 11 Nordeste 25 Nordeste 0 -- -- 54
2020-08-31 08:00:00 17.6 11 Nordeste 28 Nordeste 0 -- -- 59
2020-08-31 07:00:00 17.4 15 Nordeste 32 Nordeste 0 -- -- 61
2020-08-31 06:00:00 17.6 14 Nordeste 32 Nordeste 0 -- -- 61
2020-08-31 05:00:00 18.2 11 Nordeste 33 Nordeste 0 -- -- 58
2020-08-31 04:00:00 18.8 14 Nordeste 38 Nordeste 0 -- -- 55
2020-08-31 03:00:00 18.7 8 Nordeste 29 Nordeste 0 -- -- 54
2020-08-31 02:00:00 19.2 13 Nordeste 33 Nordeste 0 -- -- 53
2020-08-31 01:00:00 19.2 6 Nordeste 25 Nordeste 0 -- -- 55
2020-08-31 00:00:00 19.3 12 Nordeste 28 Nordeste 0 -- -- 58
2020-08-30 23:00:00 20.2 12 Nordeste 30 Nordeste 0 -- -- 53
2020-08-30 22:00:00 20.7 6 Norte 23 Nordeste 0 -- -- 55
2020-08-30 21:00:00 20.8 8 Nordeste 27 Nordeste 0 -- -- 55
2020-08-30 20:00:00 21.9 9 Nordeste 27 Nordeste 0 -- -- 50
2020-08-30 19:00:00 22.3 6 Nordeste 33 Nordeste 0 -- -- 51
2020-08-30 18:00:00 23.7 16 Nordeste 37 Nordeste 0 -- -- 41
2020-08-30 17:00:00 25.5 13 Nordeste 29 Nordeste 0 -- -- 39
2020-08-30 16:00:00 25.3 9 Este 25 Este 0 -- -- 38
2020-08-30 15:00:00 26 6 Nordeste 23 Este 0 -- -- 37
2020-08-30 14:00:00 25.5 6 Norte 20 Nordeste 0 -- -- 37
2020-08-30 13:00:00 24.8 9 Nordeste 25 Nordeste 0 -- -- 39
2020-08-30 12:00:00 23.6 10 Nordeste 28 Nordeste 0 -- -- 41
2020-08-30 11:00:00 22.2 11 Nordeste 32 Nordeste 0 -- -- 47
2020-08-30 10:00:00 19.5 17 Nordeste 35 Norte 0.2 -- -- 55
2020-08-30 09:00:00 18.6 10 Nordeste 26 Nordeste 0 -- -- 59
2020-08-30 08:00:00 13.8 5 Noroeste 11 Noroeste 0 -- -- 82
2020-08-30 07:00:00 13.9 5 Noroeste 15 Noroeste 0 -- -- 81
2020-08-30 06:00:00 13.7 6 Noroeste 13 Noroeste 0 -- -- 86
2020-08-30 05:00:00 14.3 4 Noroeste 12 Nordeste 0 -- -- 88
2020-08-30 04:00:00 16 5 Norte 24 Nordeste 0 -- -- 75
2020-08-30 03:00:00 15.6 6 Nordeste 19 Nordeste 0.2 -- -- 80
2020-08-30 02:00:00 16.9 9 Norte 30 Norte 1.2 -- -- 76
2020-08-30 01:00:00 19 5 Norte 20 Nordeste 0 -- -- 56
2020-08-30 00:00:00 19.3 10 Norte 26 Nordeste 0 -- -- 53
2020-08-29 23:00:00 18.8 8 Nordeste 24 Nordeste 0 -- -- 60
2020-08-29 22:00:00 20 10 Nordeste 30 Norte 0 -- -- 59
2020-08-29 21:00:00 21.5 8 Nordeste 22 Nordeste 0 -- -- 51
2020-08-29 20:00:00 21.7 3 Este 13 Nordeste 0 -- -- 53
2020-08-29 19:00:00 22.1 7 Nordeste 34 Nordeste 0 -- -- 52
2020-08-29 18:00:00 22.7 14 Nordeste 32 Nordeste 0 -- -- 46
2020-08-29 17:00:00 22.9 13 Nordeste 38 Nordeste 0 -- -- 48
2020-08-29 16:00:00 23.2 13 Nordeste 30 Nordeste 0 -- -- 52
2020-08-29 15:00:00 22.2 12 Nordeste 31 Norte 0 -- -- 56
2020-08-29 14:00:00 20.3 11 Nordeste 31 Nordeste 0 -- -- 65
2020-08-29 13:00:00 18.7 9 Nordeste 23 Nordeste 0.4 -- -- 76
2020-08-29 12:00:00 18.3 9 Nordeste 21 Nordeste 0 -- -- 77
2020-08-29 11:00:00 17.2 9 Nordeste 27 Nordeste 0 -- -- 78
2020-08-29 10:00:00 16.3 10 Nordeste 24 Norte 1 -- -- 84
2020-08-29 09:00:00 15.6 4 Nordeste 9 Este 3 -- -- 91
2020-08-29 08:00:00 14.9 4 Sudeste 27 Nordeste 8 -- -- 93
2020-08-29 07:00:00 15.1 17 Nordeste 39 Norte 2.6 -- -- 87
2020-08-29 06:00:00 15.5 20 Nordeste 45 Nordeste 0.2 -- -- 83
2020-08-29 05:00:00 16.1 16 Nordeste 41 Nordeste 0.2 -- -- 80
2020-08-29 04:00:00 16.3 16 Nordeste 33 Nordeste 0.6 -- -- 86
2020-08-29 03:00:00 17.3 10 Nordeste 30 Nordeste 0.2 -- -- 81
2020-08-29 02:00:00 18.5 7 Nordeste 31 Norte 0 -- -- 72
2020-08-29 01:00:00 17.6 19 Nordeste 38 Nordeste 0.2 -- -- 77
2020-08-29 00:00:00 17.1 15 Nordeste 40 Nordeste 1.2 -- -- 84
2020-08-28 23:00:00 19.5 21 Nordeste 49 Nordeste 0 -- -- 65
2020-08-28 22:00:00 19.8 17 Nordeste 36 Nordeste 0 -- -- 65
2020-08-28 21:00:00 19.8 17 Nordeste 48 Nordeste 0 -- -- 68
2020-08-28 20:00:00 19.9 17 Nordeste 50 Norte 0 -- -- 67
2020-08-28 19:00:00 19.8 18 Nordeste 41 Nordeste 0 -- -- 69
2020-08-28 18:00:00 20.8 20 Nordeste 41 Nordeste 0 -- -- 71
2020-08-28 17:00:00 22.9 17 Nordeste 36 Nordeste 0 -- -- 69
2020-08-28 16:00:00 28.5 9 Este 19 Este 0 -- -- 54
2020-08-28 15:00:00 29.3 10 Este 24 Sur 0 -- -- 54
2020-08-28 14:00:00 31.1 13 Sur 23 Sur 0 -- -- 49
2020-08-28 13:00:00 30.8 10 Sudeste 23 Sudeste 0 -- -- 53
2020-08-28 12:00:00 30.7 9 Sur 19 Sur 0 -- -- 54
2020-08-28 11:00:00 29.7 5 Sur 12 Sudoeste 0 -- -- 58
2020-08-28 10:00:00 27.6 4 Sur 8 Sur 0 -- -- 67
2020-08-28 09:00:00 24.7 3 Sudeste 8 Este 0 -- -- 81
2020-08-28 08:00:00 22.4 3 Noroeste 5 Noroeste 0 -- -- 83
2020-08-28 07:00:00 22.1 0 Calma 6 Noroeste 0 -- -- 82
2020-08-28 06:00:00 22.8 4 Noroeste 6 Noroeste 0 -- -- 80
2020-08-28 05:00:00 23.3 3 Norte 9 Norte 0 -- -- 79
2020-08-28 04:00:00 23.3 0 Calma 12 Noroeste 0 -- -- 80
2020-08-28 03:00:00 23.8 4 Noroeste 10 Noroeste 0 -- -- 79
2020-08-28 02:00:00 25.1 4 Noroeste 6 Noroeste 0 -- -- 83
2020-08-28 01:00:00 25.7 2 Oeste 6 Noroeste 0 -- -- 85
2020-08-28 00:00:00 26.5 2 Noroeste 9 Noroeste 0 -- -- 84
2020-08-27 23:00:00 26.9 5 Noroeste 13 Oeste 0 -- -- 85
2020-08-27 22:00:00 27.9 4 Oeste 10 Oeste 0 -- -- 82
2020-08-27 21:00:00 28.6 2 Oeste 6 Oeste 0 -- -- 73
2020-08-27 20:00:00 28.6 3 Este 12 Nordeste 0 -- -- 69
2020-08-27 19:00:00 29.3 5 Nordeste 13 Nordeste 0 -- -- 67
2020-08-27 18:00:00 30.1 5 Nordeste 17 Sudeste 0 -- -- 66
2020-08-27 17:00:00 31.4 8 Sudeste 22 Sudeste 0 -- -- 61
2020-08-27 16:00:00 30.9 12 Sudeste 27 Sudeste 0 -- -- 60
2020-08-27 15:00:00 31.3 11 Sudeste 25 Sur 0 -- -- 56
2020-08-27 14:00:00 31.4 12 Sudeste 22 Sur 0 -- -- 53
2020-08-27 13:00:00 32.2 8 Sudoeste 16 Sudoeste 0 -- -- 54
2020-08-27 12:00:00 30.6 6 Sudoeste 18 Sudoeste 0 -- -- 58
2020-08-27 11:00:00 29.6 6 Sudoeste 13 Oeste 0 -- -- 55
2020-08-27 10:00:00 28 4 Sur 8 Sudeste 0 -- -- 59
2020-08-27 09:00:00 25.5 2 Sudeste 5 Nordeste 0 -- -- 68
2020-08-27 08:00:00 21.8 0 Calma 8 Sudoeste 0 -- -- 78
2020-08-27 07:00:00 22.9 2 Este 8 Nordeste 0 -- -- 74
2020-08-27 06:00:00 22.6 2 Norte 9 Nordeste 0 -- -- 75
2020-08-27 05:00:00 23.2 2 Nordeste 5 Este 0 -- -- 73
2020-08-27 04:00:00 23.9 3 Noroeste 6 Noroeste 0 -- -- 71
2020-08-27 03:00:00 23.8 3 Sudoeste 7 Noroeste 0 -- -- 71
2020-08-27 02:00:00 24.4 0 Calma 6 Norte 0 -- -- 70
2020-08-27 01:00:00 24.1 2 Oeste 6 Oeste 0 -- -- 71
2020-08-27 00:00:00 24.5 0 Calma 6 Sudoeste 0 -- -- 71
2020-08-26 23:00:00 25.2 0 Calma 5 Sur 0 -- -- 69
2020-08-26 22:00:00 25.5 3 Este 6 Sudeste 0 -- -- 69
2020-08-26 21:00:00 25.7 5 Sur 8 Sur 0 -- -- 67
2020-08-26 20:00:00 26.5 5 Sudoeste 14 Sur 0 -- -- 64
2020-08-26 19:00:00 28.2 7 Sur 19 Sudeste 0 -- -- 56
2020-08-26 18:00:00 28.7 9 Sudeste 20 Sudoeste 0 -- -- 54
2020-08-26 17:00:00 29.2 9 Sudeste 23 Sudeste 0 -- -- 53
2020-08-26 16:00:00 29.7 10 Sudeste 26 Sudeste 0 -- -- 52
2020-08-26 15:00:00 30.6 12 Sur 25 Sur 0 -- -- 49
2020-08-26 14:00:00 30.8 12 Sur 26 Sur 0 -- -- 50
2020-08-26 13:00:00 30.6 9 Sur 27 Sur 0 -- -- 55
2020-08-26 12:00:00 30.4 9 Sudeste 23 Sudeste 0 -- -- 57
2020-08-26 11:00:00 29.4 5 Sur 14 Sur 0 -- -- 58
2020-08-26 10:00:00 27.4 4 Este 9 Este 0 -- -- 59
2020-08-26 09:00:00 25.4 3 Este 6 Norte 0 -- -- 65
2020-08-26 08:00:00 21.6 2 Noroeste 7 Norte 0 -- -- 69
2020-08-26 07:00:00 21.7 0 Calma 6 Norte 0 -- -- 66
2020-08-26 06:00:00 22.2 4 Noroeste 6 Noroeste 0 -- -- 64
2020-08-26 05:00:00 22.4 0 Calma 10 Noroeste 0 -- -- 64
2020-08-26 04:00:00 22.9 5 Noroeste 13 Noroeste 0 -- -- 61
2020-08-26 03:00:00 24.3 4 Noroeste 10 Noroeste 0 -- -- 59
2020-08-26 02:00:00 25.5 5 Noroeste 9 Noroeste 0 -- -- 55
2020-08-26 01:00:00 27.2 3 Nordeste 7 Norte 0 -- -- 52
2020-08-26 00:00:00 27.3 0 Calma 6 Noroeste 0 -- -- 55
2020-08-25 23:00:00 28 0 Calma 6 Sudoeste 0 -- -- 57
2020-08-25 22:00:00 29.4 2 Norte 6 Nordeste 0 -- -- 55
2020-08-25 21:00:00 30.2 3 Este 9 Este 0 -- -- 54
2020-08-25 20:00:00 31 4 Sudeste 14 Este 0 -- -- 51
2020-08-25 19:00:00 31.9 6 Sudeste 15 Sur 0 -- -- 57
2020-08-25 18:00:00 31.3 6 Sudeste 15 Sudeste 0 -- -- 61
2020-08-25 17:00:00 30.3 9 Sur 21 Sudoeste 0 -- -- 64
2020-08-25 16:00:00 31.3 12 Sur 22 Sudoeste 0 -- -- 55
2020-08-25 15:00:00 31.3 9 Sudeste 19 Sudoeste 0 -- -- 48
2020-08-25 14:00:00 31.7 8 Sur 17 Sur 0 -- -- 48
2020-08-25 13:00:00 30.4 5 Este 11 Este 0 -- -- 46
2020-08-25 12:00:00 28.9 4 Oeste 10 Este 0 -- -- 51
2020-08-25 11:00:00 27.3 4 Sur 9 Sudeste 0 -- -- 56
2020-08-25 10:00:00 25 3 Este 7 Sudeste 0 -- -- 60
2020-08-25 09:00:00 22.3 3 Sur 5 Sudoeste 0 -- -- 65
2020-08-25 08:00:00 19.3 0 Calma 4 Oeste 0 -- -- 72
2020-08-25 07:00:00 19.4 0 Calma 5 Norte 0 -- -- 73
2020-08-25 06:00:00 20.1 0 Calma 6 Nordeste 0 -- -- 70
2020-08-25 05:00:00 20.5 3 Este 8 Noroeste 0 -- -- 68
2020-08-25 04:00:00 21.2 5 Noroeste 10 Noroeste 0 -- -- 65
2020-08-25 03:00:00 21 5 Noroeste 8 Noroeste 0 -- -- 65
2020-08-25 02:00:00 22.3 0 Calma 12 Noroeste 0 -- -- 57
2020-08-25 01:00:00 24.5 6 Nordeste 18 Nordeste 0 -- -- 48
2020-08-25 00:00:00 24.2 3 Norte 10 Nordeste 0 -- -- 49
2020-08-24 23:00:00 24.7 4 Noroeste 10 Nordeste 0 -- -- 58
2020-08-24 22:00:00 25.7 3 Sur 8 Oeste 0 -- -- 63
2020-08-24 21:00:00 26.6 4 Sudoeste 12 Sur 0 -- -- 61
2020-08-24 20:00:00 28 6 Sudoeste 18 Oeste 0 -- -- 56
2020-08-24 19:00:00 29.3 9 Sudoeste 21 Sur 0 -- -- 48
2020-08-24 18:00:00 30.1 11 Sudoeste 23 Sudoeste 0 -- -- 43
2020-08-24 17:00:00 31.5 9 Norte 24 Norte 0 -- -- 35
2020-08-24 16:00:00 31.4 6 Nordeste 21 Nordeste 0 -- -- 35
2020-08-24 15:00:00 30.8 8 Nordeste 26 Nordeste 0 -- -- 37
2020-08-24 14:00:00 30 9 Nordeste 28 Nordeste 0 -- -- 39
2020-08-24 13:00:00 28.8 11 Nordeste 36 Nordeste 0 -- -- 40
2020-08-24 12:00:00 27.5 14 Nordeste 39 Nordeste 0 -- -- 44
2020-08-24 11:00:00 26.5 14 Nordeste 39 Nordeste 0 -- -- 46
2020-08-24 10:00:00 24.6 17 Nordeste 38 Norte 0 -- -- 52
2020-08-24 09:00:00 23.3 18 Nordeste 42 Nordeste 0 -- -- 55
2020-08-24 08:00:00 22.1 18 Nordeste 37 Nordeste 0 -- -- 58
2020-08-24 07:00:00 22.3 16 Nordeste 36 Nordeste 0 -- -- 57
2020-08-24 06:00:00 22.6 16 Nordeste 36 Nordeste 0 -- -- 55
2020-08-24 05:00:00 23.2 14 Nordeste 39 Nordeste 0 -- -- 53
2020-08-24 04:00:00 23.8 12 Nordeste 25 Nordeste 0 -- -- 52
2020-08-24 03:00:00 24.1 7 Nordeste 29 Nordeste 0 -- -- 51
2020-08-24 02:00:00 24.3 14 Nordeste 30 Nordeste 0 -- -- 50
2020-08-24 01:00:00 24.6 13 Nordeste 31 Nordeste 0 -- -- 49
2020-08-24 00:00:00 24.8 13 Nordeste 33 Norte 0 -- -- 47
2020-08-23 23:00:00 25.4 7 Nordeste 30 Norte 0 -- -- 44
2020-08-23 22:00:00 25.9 12 Nordeste 30 Nordeste 0 -- -- 43
2020-08-23 21:00:00 26.6 14 Nordeste 33 Nordeste 0 -- -- 41
2020-08-23 20:00:00 27.8 14 Nordeste 39 Nordeste 0 -- -- 39
2020-08-23 19:00:00 29.2 18 Nordeste 38 Nordeste 0 -- -- 37
2020-08-23 18:00:00 30 15 Nordeste 34 Nordeste 0 -- -- 36
2020-08-23 17:00:00 30.4 14 Nordeste 30 Nordeste 0 -- -- 37
2020-08-23 16:00:00 30.4 12 Este 29 Nordeste 0 -- -- 37
2020-08-23 15:00:00 29.9 12 Nordeste 32 Este 0 -- -- 40
2020-08-23 14:00:00 28.7 17 Este 31 Sudeste 0 -- -- 42
2020-08-23 13:00:00 28.4 13 Nordeste 39 Nordeste 0 -- -- 44
2020-08-23 12:00:00 26.7 18 Nordeste 41 Nordeste 0 -- -- 48
2020-08-23 11:00:00 25 18 Nordeste 46 Nordeste 0 -- -- 53
2020-08-23 10:00:00 23.7 23 Nordeste 49 Norte 0 -- -- 58
2020-08-23 09:00:00 22.8 19 Nordeste 50 Nordeste 0 -- -- 61
2020-08-23 08:00:00 22.6 19 Nordeste 44 Nordeste 0 -- -- 61
2020-08-23 07:00:00 22.9 15 Nordeste 37 Nordeste 0 -- -- 61
2020-08-23 06:00:00 23.4 15 Nordeste 41 Nordeste 0 -- -- 59
2020-08-23 05:00:00 23.9 17 Nordeste 45 Norte 0 -- -- 60
2020-08-23 04:00:00 24.6 17 Nordeste 42 Este 0 -- -- 58
2020-08-23 03:00:00 25.1 16 Nordeste 37 Nordeste 0 -- -- 55
2020-08-23 02:00:00 25.6 16 Nordeste 44 Nordeste 0 -- -- 53
2020-08-23 01:00:00 25.9 19 Nordeste 42 Nordeste 0 -- -- 51
2020-08-23 00:00:00 26.1 18 Nordeste 40 Nordeste 0 -- -- 50